Elke K — PBES — position and weather

sailwx.info

Track history (hours):
 
Tides and Currents Weather Stations Pressure Air Temp Water Temp Dewpoint Dewpoint Depression Visibility Wind Speed Wind Dir Waves Ship Positions

Elke K

Last reported at 2017-Nov-23 05:26 UTC. Time now 2017-Nov-23 05:36 UTC.
Position N 44°24' E 008°54'.

Length 88 m; draft 4.8 m.

Type: Cargo ship. MMSI: 246180000.

Date/timePositionNaut miles runAvg speedWind from/ knotsBaromVisibWave heightAir tempDewpointWater temp
2017-Nov-23 05:26N 44°24' E 008°54'0 0.0
2017-Nov-23 04:53N 44°24' E 008°54'0 0.0
2017-Nov-23 04:20N 44°24' E 008°54'0 0.0
2017-Nov-23 03:59N 44°24' E 008°54'0 0.0
2017-Nov-23 03:29N 44°24' E 008°54'0 0.0
2017-Nov-23 02:53N 44°24' E 008°54'0 0.0
2017-Nov-23 02:29N 44°24' E 008°54'0 0.0
2017-Nov-23 01:53N 44°24' E 008°54'0 0.0
2017-Nov-23 01:29N 44°24' E 008°54'0 0.0
2017-Nov-23 00:59N 44°24' E 008°54'0 0.0
2017-Nov-23 00:26N 44°24' E 008°54'0 0.0
2017-Nov-22 23:59N 44°24' E 008°54'0 0.0
2017-Nov-22 23:26N 44°24' E 008°54'0 0.0
2017-Nov-22 22:56N 44°24' E 008°54'0 0.0
2017-Nov-22 22:29N 44°24' E 008°54'0 0.0
2017-Nov-22 21:56N 44°24' E 008°54'0 0.0
2017-Nov-22 21:29N 44°24' E 008°54'0 0.0
2017-Nov-22 20:58N 44°24' E 008°54'0 0.0
2017-Nov-22 20:25N 44°24' E 008°54'0 0.0
2017-Nov-22 19:58N 44°24' E 008°54'0 0.0
2017-Nov-22 19:16N 44°24' E 008°54'  
2017-Nov-18 15:29N 40°11' E 002°46'4 9.1
2017-Nov-18 15:00N 40°09' E 002°41'5 9.6
2017-Nov-18 14:30N 40°06' E 002°37'6 9.3
2017-Nov-18 13:51N 40°01' E 002°31'19010.9
2017-Nov-17 20:29N 37°45' W 000°18'510.5
2017-Nov-17 20:00N 37°41' W 000°22'510.8
2017-Nov-17 19:30N 37°37' W 000°27'510.7
2017-Nov-17 19:00N 37°33' W 000°31'510.7
2017-Nov-17 18:30N 37°29' W 000°36'610.6
2017-Nov-17 17:58N 37°25' W 000°41'1 2.8
2017-Nov-17 17:30N 37°24' W 000°42'2 3.3
2017-Nov-17 17:00N 37°24' W 000°44'510.3
2017-Nov-17 16:30N 37°20' W 000°49'510.3
2017-Nov-17 16:00N 37°17' W 000°54'22110.3
2017-Nov-16 18:30N 36°05' W 005°15'10 0.3
2017-Nov-15 06:45N 36°10' W 005°26'0 0.0
2017-Nov-15 06:21N 36°10' W 005°26'0 0.0
2017-Nov-15 05:24N 36°10' W 005°26'0 0.0
2017-Nov-14 22:57N 36°09' W 005°26'6 3.9
2017-Nov-14 21:24N 36°05' W 005°20'411.1
2017-Nov-14 21:01N 36°07' W 005°15'  
Track history (hours):
 
Tides and Currents Weather Stations Pressure Air Temp Water Temp Dewpoint Dewpoint Depression Visibility Wind Speed Wind Dir Waves Ship Positions

Elke K

Last reported at 2017-Nov-23 05:26 UTC. Time now 2017-Nov-23 05:36 UTC.
Position N 44°24' E 008°54'.

Length 88 m; draft 4.8 m.

Type: Cargo ship. MMSI: 246180000.

Date/timePositionNaut miles runAvg speedWind from/ knotsBaromVisibWave heightAir tempDewpointWater temp
2017-Nov-23 05:26N 44°24' E 008°54'0 0.0
2017-Nov-23 04:53N 44°24' E 008°54'0 0.0
2017-Nov-23 04:20N 44°24' E 008°54'0 0.0
2017-Nov-23 03:59N 44°24' E 008°54'0 0.0
2017-Nov-23 03:29N 44°24' E 008°54'0 0.0
2017-Nov-23 02:53N 44°24' E 008°54'0 0.0
2017-Nov-23 02:29N 44°24' E 008°54'0 0.0
2017-Nov-23 01:53N 44°24' E 008°54'0 0.0
2017-Nov-23 01:29N 44°24' E 008°54'0 0.0
2017-Nov-23 00:59N 44°24' E 008°54'0 0.0
2017-Nov-23 00:26N 44°24' E 008°54'0 0.0
2017-Nov-22 23:59N 44°24' E 008°54'0 0.0
2017-Nov-22 23:26N 44°24' E 008°54'0 0.0
2017-Nov-22 22:56N 44°24' E 008°54'0 0.0
2017-Nov-22 22:29N 44°24' E 008°54'0 0.0
2017-Nov-22 21:56N 44°24' E 008°54'0 0.0
2017-Nov-22 21:29N 44°24' E 008°54'0 0.0
2017-Nov-22 20:58N 44°24' E 008°54'0 0.0
2017-Nov-22 20:25N 44°24' E 008°54'0 0.0
2017-Nov-22 19:58N 44°24' E 008°54'0 0.0
2017-Nov-22 19:16N 44°24' E 008°54'  
2017-Nov-18 15:29N 40°11' E 002°46'4 9.1
2017-Nov-18 15:00N 40°09' E 002°41'5 9.6
2017-Nov-18 14:30N 40°06' E 002°37'6 9.3
2017-Nov-18 13:51N 40°01' E 002°31'19010.9
2017-Nov-17 20:29N 37°45' W 000°18'510.5
2017-Nov-17 20:00N 37°41' W 000°22'510.8
2017-Nov-17 19:30N 37°37' W 000°27'510.7
2017-Nov-17 19:00N 37°33' W 000°31'510.7
2017-Nov-17 18:30N 37°29' W 000°36'610.6
2017-Nov-17 17:58N 37°25' W 000°41'1 2.8
2017-Nov-17 17:30N 37°24' W 000°42'2 3.3
2017-Nov-17 17:00N 37°24' W 000°44'510.3
2017-Nov-17 16:30N 37°20' W 000°49'510.3
2017-Nov-17 16:00N 37°17' W 000°54'22110.3
2017-Nov-16 18:30N 36°05' W 005°15'10 0.3
2017-Nov-15 06:45N 36°10' W 005°26'0 0.0
2017-Nov-15 06:21N 36°10' W 005°26'0 0.0
2017-Nov-15 05:24N 36°10' W 005°26'0 0.0
2017-Nov-14 22:57N 36°09' W 005°26'6 3.9
2017-Nov-14 21:24N 36°05' W 005°20'411.1
2017-Nov-14 21:01N 36°07' W 005°15'  

Dump ship's entire track history